Time;durP1;ratioP1;P1;durP2;ratioP2;P2;SDS_P1;SDS_P2;PMS_P1;PMS_P2;Temp;Humidity;BMP_temperature;BMP_pressure;BME280_temperature;BME280_humidity;BME280_pressure;Samples;Min_cycle;Max_cycle;Signal;HPM_P1;HPM_P2
2022/12/11 00:00:52;;;;;;;0.90;0.90;;;;;;;-0.60;100.00;98373.84;4922862;29;20454;-85
2022/12/11 00:03:20;;;;;;;0.90;0.90;;;;;;;-0.62;100.00;98379.31;4918985;29;20047;-84
2022/12/11 00:05:47;;;;;;;0.90;0.90;;;;;;;-0.63;100.00;98374.19;4936995;29;20053;-84
2022/12/11 00:08:14;;;;;;;0.90;0.90;;;;;;;-0.64;100.00;98367.28;4937001;29;20071;-85
2022/12/11 00:10:48;;;;;;;0.90;0.90;;;;;;;-0.64;100.00;98365.44;4942444;29;20491;-84
2022/12/11 00:13:16;;;;;;;0.87;0.87;;;;;;;-0.64;100.00;98359.31;4940330;29;20067;-84
2022/12/11 00:15:43;;;;;;;0.90;0.90;;;;;;;-0.66;100.00;98360.34;4937400;29;20058;-84
2022/12/11 00:18:12;;;;;;;0.80;0.80;;;;;;;-0.62;100.00;98374.03;4935505;29;20051;-83
2022/12/11 00:20:39;;;;;;;0.70;0.70;;;;;;;-0.64;100.00;98368.09;4934387;29;20103;-84
2022/12/11 00:23:06;;;;;;;0.82;0.82;;;;;;;-0.66;100.00;98365.66;4935460;29;20051;-84
2022/12/11 00:25:33;;;;;;;0.80;0.80;;;;;;;-0.58;100.00;98362.06;4919662;29;20055;-84
2022/12/11 00:28:06;;;;;;;0.90;0.90;;;;;;;-0.57;100.00;98358.38;4940559;29;20570;-84
2022/12/11 00:30:33;;;;;;;0.88;0.88;;;;;;;-0.56;100.00;98360.00;4947560;29;20084;-83
2022/12/11 00:32:59;;;;;;;0.80;0.80;;;;;;;-0.59;100.00;98357.75;4929471;29;20048;-84
2022/12/11 00:35:27;;;;;;;0.80;0.80;;;;;;;-0.53;100.00;98364.97;4915853;29;20075;-83
2022/12/11 00:37:54;;;;;;;0.90;0.90;;;;;;;-0.57;100.00;98363.69;4915971;29;20056;-85
2022/12/11 00:40:21;;;;;;;0.70;0.70;;;;;;;-0.57;100.00;98352.25;4915566;29;20509;-84
2022/12/11 00:42:48;;;;;;;0.90;0.90;;;;;;;-0.56;100.00;98361.84;4898704;29;20052;-84
2022/12/11 00:45:16;;;;;;;0.90;0.90;;;;;;;-0.57;100.00;98365.53;4898842;29;20048;-85
2022/12/11 00:47:43;;;;;;;0.90;0.90;;;;;;;-0.57;100.00;98379.59;4915697;29;20052;-84
2022/12/11 00:50:11;;;;;;;0.80;0.80;;;;;;;-0.59;100.00;98376.28;4913924;29;20111;-85
2022/12/11 00:52:39;;;;;;;0.80;0.80;;;;;;;-0.57;100.00;98384.88;4898485;29;20056;-84
2022/12/11 00:55:06;;;;;;;0.80;0.80;;;;;;;-0.56;100.00;98391.81;4915285;29;20059;-84
2022/12/11 00:57:34;;;;;;;0.77;0.77;;;;;;;-0.56;100.00;98385.69;4915074;29;20051;-84
2022/12/11 01:00:03;;;;;;;0.80;0.80;;;;;;;-0.57;100.00;98392.84;4898322;29;20138;-85
2022/12/11 01:02:30;;;;;;;0.80;0.80;;;;;;;-0.53;100.00;98393.28;4914807;29;20138;-84
2022/12/11 01:04:57;;;;;;;0.80;0.80;;;;;;;-0.53;100.00;98388.81;4897894;29;20511;-84
2022/12/11 01:07:24;;;;;;;0.90;0.90;;;;;;;-0.53;100.00;98391.47;4914737;29;20582;-84
2022/12/11 01:12:38;;;;;;;0.90;0.90;;;;;;;-0.55;100.00;98387.38;4913689;29;20507;-84
2022/12/11 01:15:05;;;;;;;0.90;0.90;;;;;;;-0.56;100.00;98375.91;4914675;29;20052;-83
2022/12/11 01:17:32;;;;;;;0.90;0.90;;;;;;;-0.54;100.00;98381.03;4914368;29;20058;-84
2022/12/11 01:19:59;;;;;;;1.00;1.00;;;;;;;-0.52;100.00;98379.84;4914395;29;20104;-85
2022/12/11 01:22:26;;;;;;;1.00;1.00;;;;;;;-0.55;100.00;98387.38;4914506;29;20066;-83
2022/12/11 01:24:54;;;;;;;0.90;0.90;;;;;;;-0.64;100.00;98368.09;4914710;29;20044;-84
2022/12/11 01:27:21;;;;;;;1.00;1.00;;;;;;;-0.64;100.00;98373.38;4914289;29;20062;-83
2022/12/11 01:29:48;;;;;;;0.95;0.95;;;;;;;-0.68;100.00;98383.56;4914580;29;20052;-84
2022/12/11 01:32:15;;;;;;;1.00;1.00;;;;;;;-0.67;100.00;98374.59;4914421;29;20044;-84
2022/12/11 01:34:42;;;;;;;0.98;0.98;;;;;;;-0.63;100.00;98363.59;4897858;29;20426;-85
2022/12/11 01:37:09;;;;;;;0.88;0.88;;;;;;;-0.60;100.00;98369.38;4914286;29;20143;-85
2022/12/11 01:39:37;;;;;;;0.80;0.80;;;;;;;-0.59;100.00;98367.53;4914757;29;20075;-84
2022/12/11 01:42:09;;;;;;;0.75;0.75;;;;;;;-0.64;100.00;98361.97;4915422;29;20052;-84
2022/12/11 01:44:36;;;;;;;1.02;1.00;;;;;;;-0.67;100.00;98360.53;4915117;29;20044;-84
2022/12/11 01:47:03;;;;;;;0.85;0.85;;;;;;;-0.69;100.00;98375.78;4914500;29;20052;-83
2022/12/11 01:49:30;;;;;;;0.80;0.80;;;;;;;-0.68;100.00;98377.44;4914091;29;20534;-85
2022/12/11 01:52:05;;;;;;;0.90;0.90;;;;;;;-0.63;100.00;98379.50;4897785;29;20063;-85
2022/12/11 01:54:33;;;;;;;0.82;0.82;;;;;;;-0.62;100.00;98389.94;4914215;29;20056;-84
2022/12/11 01:57:05;;;;;;;0.90;0.90;;;;;;;-0.59;100.00;98400.16;4914474;29;20694;-84
2022/12/11 01:59:35;;;;;;;1.10;1.02;;;;;;;-0.58;100.00;98385.91;4897264;29;20096;-84
2022/12/11 02:02:15;;;;;;;0.90;0.90;;;;;;;-0.57;100.00;98398.13;4914472;29;20063;-84
2022/12/11 02:04:43;;;;;;;0.98;0.98;;;;;;;-0.55;100.00;98390.81;4914418;29;20059;-84
2022/12/11 02:07:10;;;;;;;0.98;0.98;;;;;;;-0.57;100.00;98390.19;4916040;29;20048;-85
2022/12/11 02:09:40;;;;;;;1.00;1.00;;;;;;;-0.62;100.00;98386.47;4914119;29;20623;-85
2022/12/11 02:12:18;;;;;;;1.20;1.10;;;;;;;-0.62;100.00;98394.41;4912996;29;20151;-85
2022/12/11 02:15:01;;;;;;;1.02;1.00;;;;;;;-0.66;100.00;98402.75;4913752;29;20143;-85
2022/12/11 02:17:33;;;;;;;0.90;0.90;;;;;;;-0.64;100.00;98409.69;4917562;29;20059;-85
2022/12/11 02:20:23;;;;;;;0.90;0.90;;;;;;;-0.59;100.00;98409.94;4900395;29;20048;-84
2022/12/11 02:23:03;;;;;;;1.00;1.00;;;;;;;-0.54;100.00;98412.84;4917953;29;20052;-85
2022/12/11 02:25:49;;;;;;;0.90;0.90;;;;;;;-0.58;100.00;98419.53;4917847;29;20060;-84
2022/12/11 02:28:39;;;;;;;;;;;;;;;-0.60;100.00;98419.72;4901365;29;20052;-85
2022/12/11 02:31:12;;;;;;;1.02;1.00;;;;;;;-0.62;100.00;98421.75;4917890;29;19934;-84
2022/12/11 02:33:45;;;;;;;0.90;0.90;;;;;;;-0.61;100.00;98426.00;4916692;29;20056;-85
2022/12/11 02:36:15;;;;;;;1.00;1.00;;;;;;;-0.58;100.00;98430.13;4917497;29;20076;-85
2022/12/11 02:38:42;;;;;;;1.20;1.10;;;;;;;-0.58;100.00;98423.00;4918543;29;20507;-85
2022/12/11 02:41:10;;;;;;;1.00;1.00;;;;;;;-0.56;100.00;98423.63;4906665;29;20056;-85
2022/12/11 02:43:38;;;;;;;1.00;1.00;;;;;;;-0.55;100.00;98429.78;4924788;29;20112;-85
2022/12/11 02:46:06;;;;;;;0.93;0.93;;;;;;;-0.54;100.00;98434.06;4925703;29;20413;-85
2022/12/11 02:48:35;;;;;;;1.00;1.00;;;;;;;-0.54;100.00;98434.88;4929337;29;20048;-85
2022/12/11 02:51:03;;;;;;;1.20;1.10;;;;;;;-0.54;100.00;98436.69;4933581;29;20197;-84
2022/12/11 02:53:31;;;;;;;0.90;0.90;;;;;;;-0.68;100.00;98436.56;4935108;29;20525;-84
2022/12/11 02:56:03;;;;;;;1.00;1.00;;;;;;;-0.60;100.00;98440.13;4912970;29;20059;-84
2022/12/11 02:58:31;;;;;;;1.00;1.00;;;;;;;-0.59;100.00;98444.41;4924569;29;20048;-84
2022/12/11 03:00:58;;;;;;;0.88;0.88;;;;;;;-0.58;100.00;98449.53;4906342;29;20426;-87
2022/12/11 03:03:28;;;;;;;0.93;0.93;;;;;;;-0.59;100.00;98439.91;4920125;29;20052;-86
2022/12/11 03:05:55;;;;;;;0.90;0.90;;;;;;;-0.55;100.00;98457.09;4929595;29;20055;-87
2022/12/11 03:08:22;;;;;;;1.00;1.00;;;;;;;-0.53;100.00;98459.53;4929252;29;20044;-85
2022/12/11 03:10:49;;;;;;;0.73;0.73;;;;;;;-0.56;100.00;98458.09;4936440;29;20088;-88
2022/12/11 03:13:19;;;;;;;1.00;1.00;;;;;;;-0.53;100.00;98460.38;4935496;29;20642;-89
2022/12/11 03:16:07;;;;;;;0.90;0.90;;;;;;;-0.53;100.00;98456.88;4936996;29;20446;-87
2022/12/11 03:18:50;;;;;;;0.93;0.93;;;;;;;-0.49;100.00;98461.63;4921622;29;20059;-87
2022/12/11 03:21:29;;;;;;;0.90;0.90;;;;;;;-0.53;100.00;98463.03;4925975;29;20063;-86
2022/12/11 03:24:03;;;;;;;1.10;1.00;;;;;;;-0.51;100.00;98468.94;4901327;29;20111;-86
2022/12/11 03:26:37;;;;;;;0.82;0.82;;;;;;;-0.55;100.00;98469.53;4918416;29;20067;-88
2022/12/11 03:29:12;;;;;;;0.90;0.90;;;;;;;-0.54;100.00;98477.28;4920057;29;20051;-88
2022/12/11 03:31:44;;;;;;;0.95;0.95;;;;;;;-0.52;100.00;98477.09;4937157;29;20498;-87
2022/12/11 03:34:41;;;;;;;0.93;0.93;;;;;;;-0.53;100.00;98481.59;4947246;29;20040;-85
2022/12/11 03:37:09;;;;;;;0.80;0.80;;;;;;;-0.55;100.00;98473.00;4939508;29;20056;-88
2022/12/11 03:39:39;;;;;;;1.00;1.00;;;;;;;-0.53;100.00;98478.94;4924396;29;20051;-90
2022/12/11 03:42:10;;;;;;;0.90;0.90;;;;;;;-0.52;100.00;98488.53;4914709;29;20048;-88
2022/12/11 03:44:38;;;;;;;0.90;0.90;;;;;;;-0.51;100.00;98490.16;4898691;29;20143;-89
2022/12/11 03:47:07;;;;;;;0.90;0.90;;;;;;;-0.49;100.00;98482.03;4899202;29;20462;-87
2022/12/11 03:49:38;;;;;;;1.00;1.00;;;;;;;-0.49;100.00;98482.84;4898774;29;20083;-91
2022/12/11 03:52:06;;;;;;;0.90;0.90;;;;;;;-0.50;100.00;98491.81;4883712;29;20542;-86
2022/12/11 03:54:33;;;;;;;0.70;0.70;;;;;;;-0.50;100.00;98485.69;4914067;29;20104;-85
2022/12/11 03:57:01;;;;;;;0.90;0.90;;;;;;;-0.48;100.00;98487.16;4910708;29;20052;-87
2022/12/11 03:59:29;;;;;;;0.77;0.77;;;;;;;-0.50;100.00;98481.22;4912387;29;20099;-87
2022/12/11 04:01:56;;;;;;;0.90;0.90;;;;;;;-0.54;100.00;98490.53;4906988;29;20652;-86
2022/12/11 04:04:23;;;;;;;0.80;0.80;;;;;;;-0.57;100.00;98501.50;4912819;29;20055;-86
2022/12/11 04:06:51;;;;;;;0.80;0.80;;;;;;;-0.58;100.00;98509.63;4913756;29;20052;-87
2022/12/11 04:09:18;;;;;;;0.82;0.82;;;;;;;-0.56;100.00;98508.44;4914376;29;20067;-87
2022/12/11 04:11:45;;;;;;;0.85;0.85;;;;;;;-0.56;100.00;98505.78;4914398;29;20056;-88
2022/12/11 04:16:59;;;;;;;0.80;0.80;;;;;;;-0.61;100.00;98510.84;4920950;29;20142;-88
2022/12/11 04:25:00;;;;;;;0.90;0.90;;;;;;;-0.68;100.00;98521.38;4938055;29;20051;-86
2022/12/11 04:27:47;;;;;;;0.90;0.90;;;;;;;-0.70;100.00;98517.25;4935547;29;20094;-86
2022/12/11 04:30:17;;;;;;;0.90;0.90;;;;;;;-0.69;100.00;98522.34;4945460;29;20099;-90
2022/12/11 04:32:44;;;;;;;0.80;0.80;;;;;;;-0.76;100.00;98520.63;4928980;29;20590;-88
2022/12/11 04:35:12;;;;;;;0.70;0.70;;;;;;;-0.74;100.00;98529.22;4920266;29;20048;-90
2022/12/11 04:37:40;;;;;;;0.90;0.90;;;;;;;-0.75;100.00;98532.88;4938512;29;20047;-89
2022/12/11 04:40:10;;;;;;;0.80;0.80;;;;;;;-0.75;100.00;98535.53;4930952;29;20115;-87
2022/12/11 04:42:38;;;;;;;0.90;0.90;;;;;;;-0.76;100.00;98531.22;4930663;29;20121;-89
2022/12/11 04:45:07;;;;;;;0.98;0.98;;;;;;;-0.79;100.00;98523.66;4908315;29;20052;-88
2022/12/11 04:47:35;;;;;;;0.80;0.80;;;;;;;-0.75;100.00;98524.94;4941933;29;20058;-86
2022/12/11 04:50:04;;;;;;;0.80;0.80;;;;;;;-0.76;100.00;98524.13;4945280;29;20083;-88
2022/12/11 04:52:31;;;;;;;0.80;0.80;;;;;;;-0.78;100.00;98525.31;4957028;29;20063;-90
2022/12/11 04:54:58;;;;;;;0.90;0.90;;;;;;;-0.79;100.00;98527.13;4959788;29;20092;-88
2022/12/11 04:57:25;;;;;;;0.85;0.85;;;;;;;-0.80;100.00;98522.84;4954197;29;20146;-91
2022/12/11 04:59:53;;;;;;;0.70;0.70;;;;;;;-0.81;100.00;98515.06;4926115;29;20119;-92
2022/12/11 05:02:22;;;;;;;0.80;0.80;;;;;;;-0.77;100.00;98516.34;4927276;29;20406;-91
2022/12/11 05:04:49;;;;;;;0.90;0.90;;;;;;;-0.80;100.00;98504.28;4932312;29;20107;-92
2022/12/11 05:07:19;;;;;;;0.90;0.90;;;;;;;-0.80;100.00;98511.41;4940438;29;20064;-92
2022/12/11 05:09:46;;;;;;;0.90;0.90;;;;;;;-0.81;100.00;98512.41;4941986;29;20044;-93
2022/12/11 05:12:13;;;;;;;0.80;0.80;;;;;;;-0.85;100.00;98519.91;4954451;29;20039;-92
2022/12/11 05:14:40;;;;;;;0.70;0.70;;;;;;;-0.88;100.00;98537.00;4955215;29;20086;-91
2022/12/11 05:17:07;;;;;;;0.90;0.90;;;;;;;-0.89;100.00;98540.66;4950965;29;20047;-91
2022/12/11 05:19:34;;;;;;;0.82;0.82;;;;;;;-0.87;100.00;98543.94;4941440;29;20047;-91
2022/12/11 05:22:16;;;;;;;0.90;0.90;;;;;;;-0.88;100.00;98531.69;4924206;29;20059;-92
2022/12/11 05:24:43;;;;;;;0.90;0.90;;;;;;;-0.87;100.00;98537.81;4924372;29;20051;-91
2022/12/11 05:27:11;;;;;;;0.80;0.80;;;;;;;-0.89;100.00;98551.25;4940623;29;20571;-92
2022/12/11 05:29:38;;;;;;;0.90;0.90;;;;;;;-0.90;100.00;98554.06;4925437;29;20128;-91
2022/12/11 05:32:06;;;;;;;0.80;0.80;;;;;;;-0.87;100.00;98564.31;4926789;29;20075;-91
2022/12/11 05:34:33;;;;;;;0.70;0.70;;;;;;;-0.96;100.00;98571.53;4940825;29;20095;-91
2022/12/11 05:37:01;;;;;;;0.90;0.90;;;;;;;-1.01;100.00;98576.53;4932915;29;20055;-89
2022/12/11 05:39:28;;;;;;;0.80;0.80;;;;;;;-1.10;100.00;98585.56;4913807;29;20478;-91
2022/12/11 05:41:55;;;;;;;0.80;0.80;;;;;;;-0.98;100.00;98602.66;4914656;29;20083;-89
2022/12/11 05:44:39;;;;;;;0.90;0.90;;;;;;;-1.02;100.00;98600.56;4927317;29;20050;-93
2022/12/11 05:47:06;;;;;;;0.90;0.90;;;;;;;-0.99;100.00;98605.47;4924486;29;20498;-91
2022/12/11 05:49:38;;;;;;;0.90;0.90;;;;;;;-0.99;100.00;98611.59;4926062;29;20051;-91
2022/12/11 05:52:05;;;;;;;0.80;0.80;;;;;;;-0.97;100.00;98608.78;4944141;29;20052;-91
2022/12/11 05:54:32;;;;;;;0.90;0.90;;;;;;;-0.99;100.00;98614.25;4946829;29;20051;-89
2022/12/11 05:56:59;;;;;;;0.90;0.90;;;;;;;-1.01;100.00;98616.28;4949051;29;20043;-92
2022/12/11 05:59:27;;;;;;;0.77;0.77;;;;;;;-1.01;100.00;98618.94;4932933;29;20058;-93
2022/12/11 06:01:55;;;;;;;0.77;0.77;;;;;;;-0.98;100.00;98631.81;4930615;29;20052;-90
2022/12/11 06:04:25;;;;;;;0.77;0.77;;;;;;;-0.96;100.00;98642.22;4938730;29;20055;-91
2022/12/11 06:06:54;;;;;;;0.90;0.90;;;;;;;-0.98;100.00;98645.06;4894000;29;20044;-89
2022/12/11 06:09:25;;;;;;;0.90;0.90;;;;;;;-0.96;100.00;98653.66;4915970;29;20058;-89
2022/12/11 06:11:52;;;;;;;0.90;0.90;;;;;;;-0.94;100.00;98659.59;4882989;29;20056;-90
2022/12/11 06:14:19;;;;;;;0.80;0.80;;;;;;;-0.91;100.00;98667.19;4903910;29;20052;-89
2022/12/11 06:16:46;;;;;;;0.90;0.90;;;;;;;-1.01;100.00;98650.72;4878734;29;20051;-90
2022/12/11 06:19:14;;;;;;;0.80;0.80;;;;;;;-0.97;100.00;98661.75;4927684;29;20114;-88
2022/12/11 06:21:41;;;;;;;0.90;0.90;;;;;;;-0.96;100.00;98658.94;4929009;29;20056;-90
2022/12/11 06:24:11;;;;;;;0.80;0.80;;;;;;;-0.91;100.00;98669.00;4902775;29;20060;-89
2022/12/11 06:26:43;;;;;;;0.70;0.70;;;;;;;-0.96;100.00;98658.94;4920354;29;20060;-90
2022/12/11 06:29:13;;;;;;;1.00;1.00;;;;;;;-1.10;100.00;98659.72;4926359;29;20043;-89
2022/12/11 06:31:41;;;;;;;0.82;0.82;;;;;;;-1.03;100.00;98665.97;4937153;29;20059;-91
2022/12/11 06:34:12;;;;;;;0.80;0.80;;;;;;;-0.96;100.00;98668.69;4897385;29;20134;-89
2022/12/11 06:36:40;;;;;;;0.90;0.90;;;;;;;-0.92;100.00;98662.06;4917831;29;20062;-89
2022/12/11 06:39:07;;;;;;;0.82;0.82;;;;;;;-1.01;100.00;98657.81;4935077;29;20099;-93
2022/12/11 06:41:43;;;;;;;0.80;0.80;;;;;;;-1.01;100.00;98653.38;4946683;29;20059;-92
2022/12/11 06:44:11;;;;;;;0.90;0.90;;;;;;;-0.94;100.00;98664.91;4947889;29;20113;-88
2022/12/11 06:46:38;;;;;;;0.80;0.80;;;;;;;-1.00;100.00;98665.59;4941486;29;20063;-92
2022/12/11 06:49:05;;;;;;;0.90;0.90;;;;;;;-0.97;100.00;98661.75;4941302;29;20111;-90
2022/12/11 06:51:32;;;;;;;0.90;0.90;;;;;;;-0.97;100.00;98672.34;4924400;29;20048;-88
2022/12/11 06:53:59;;;;;;;0.90;0.90;;;;;;;-0.94;100.00;98675.50;4906728;29;20059;-87
2022/12/11 06:56:26;;;;;;;0.80;0.80;;;;;;;-0.90;100.00;98673.28;4922539;29;20102;-89
2022/12/11 06:58:55;;;;;;;0.70;0.70;;;;;;;-0.96;100.00;98663.41;4919683;29;20051;-87
2022/12/11 07:01:25;;;;;;;0.90;0.90;;;;;;;-0.94;100.00;98672.00;4936868;29;20098;-86
2022/12/11 07:04:05;;;;;;;0.80;0.80;;;;;;;-0.95;100.00;98680.97;4933234;29;20048;-86
2022/12/11 07:06:32;;;;;;;0.90;0.90;;;;;;;-0.95;100.00;98684.44;4921537;29;20142;-90
2022/12/11 07:09:04;;;;;;;0.80;0.80;;;;;;;-0.87;100.00;98692.28;4922919;29;20044;-91
2022/12/11 07:11:33;;;;;;;0.90;0.90;;;;;;;-0.83;100.00;98707.84;4928547;29;20119;-88
2022/12/11 07:14:00;;;;;;;0.90;0.90;;;;;;;-0.94;100.00;98701.97;4932661;29;20426;-86
2022/12/11 07:16:27;;;;;;;0.80;0.80;;;;;;;-0.87;100.00;98699.44;4918732;29;20055;-88
2022/12/11 07:18:54;;;;;;;0.75;0.75;;;;;;;-0.94;100.00;98675.50;4933417;29;20052;-86
2022/12/11 07:21:22;;;;;;;0.90;0.90;;;;;;;-0.88;100.00;98695.16;4936969;29;20083;-89
2022/12/11 07:23:49;;;;;;;0.80;0.80;;;;;;;-0.90;100.00;98700.59;4920181;29;20052;-87
2022/12/11 07:26:20;;;;;;;0.80;0.80;;;;;;;-0.89;100.00;98688.19;4931676;29;20142;-90
2022/12/11 07:28:48;;;;;;;0.90;0.90;;;;;;;-0.90;100.00;98703.25;4916328;29;20055;-87
2022/12/11 07:31:21;;;;;;;0.90;0.90;;;;;;;-0.87;100.00;98708.19;4924753;29;20051;-89
2022/12/11 07:33:57;;;;;;;0.87;0.87;;;;;;;-0.85;100.00;98717.81;4927484;29;20048;-87
2022/12/11 07:36:24;;;;;;;0.82;0.82;;;;;;;-0.87;100.00;98720.63;4911167;29;20071;-89
2022/12/11 07:38:53;;;;;;;0.90;0.90;;;;;;;-0.88;100.00;98708.38;4929737;29;20043;-87
2022/12/11 07:41:21;;;;;;;0.80;0.80;;;;;;;-0.89;100.00;98689.03;4928038;29;20063;-91
2022/12/11 07:43:52;;;;;;;0.90;0.90;;;;;;;-0.83;100.00;98694.63;4937275;29;20059;-88
2022/12/11 07:46:23;;;;;;;0.80;0.80;;;;;;;-0.86;100.00;98690.50;4939841;29;20047;-89
2022/12/11 07:48:50;;;;;;;0.95;0.95;;;;;;;-0.92;100.00;98689.34;4918405;29;20055;-90
2022/12/11 07:54:15;;;;;;;0.82;0.82;;;;;;;-0.88;100.00;98711.84;4908749;29;20652;-90
2022/12/11 07:56:47;;;;;;;0.80;0.80;;;;;;;-0.80;100.00;98726.03;4884332;29;20116;-91
2022/12/11 07:59:20;;;;;;;0.90;0.90;;;;;;;-0.76;99.99;98727.31;4911761;29;20103;-87
2022/12/11 08:01:47;;;;;;;0.80;0.80;;;;;;;-0.74;99.73;98727.97;4912696;29;20052;-92
2022/12/11 08:04:19;;;;;;;0.98;0.98;;;;;;;-0.71;100.00;98732.91;4905333;29;20068;-92
2022/12/11 08:06:48;;;;;;;1.00;1.00;;;;;;;-0.70;100.00;98727.44;4922077;29;20035;-87
2022/12/11 08:09:15;;;;;;;0.80;0.80;;;;;;;-0.65;99.88;98726.91;4920532;29;20491;-88
2022/12/11 08:11:50;;;;;;;0.90;0.90;;;;;;;-0.67;99.89;98713.00;4882751;29;20048;-89
2022/12/11 08:14:18;;;;;;;0.90;0.90;;;;;;;-0.70;99.80;98716.84;4897627;29;20098;-91
2022/12/11 08:16:45;;;;;;;0.88;0.88;;;;;;;-0.76;99.42;98724.66;4905458;29;20053;-89
2022/12/11 08:19:13;;;;;;;0.90;0.90;;;;;;;-0.77;99.40;98736.28;4905894;29;20056;-87
2022/12/11 08:21:42;;;;;;;0.75;0.75;;;;;;;-0.74;99.58;98743.88;4909653;29;20052;-90
2022/12/11 08:24:10;;;;;;;0.80;0.80;;;;;;;-0.80;99.37;98742.75;4886280;29;20063;-91
2022/12/11 08:26:40;;;;;;;1.00;1.00;;;;;;;-0.74;99.29;98754.47;4913631;29;20055;-91
2022/12/11 08:29:24;;;;;;;0.82;0.82;;;;;;;-0.70;99.19;98761.88;4900083;29;20044;-89
2022/12/11 08:31:51;;;;;;;0.90;0.90;;;;;;;-0.68;99.42;98753.78;4905766;29;20063;-90
2022/12/11 08:34:22;;;;;;;1.00;1.00;;;;;;;-0.70;98.92;98755.78;4929720;29;20079;-87
2022/12/11 08:36:52;;;;;;;0.90;0.90;;;;;;;-0.67;99.18;98758.88;4921048;29;20071;-89
2022/12/11 08:39:21;;;;;;;0.90;0.90;;;;;;;-0.64;99.28;98752.41;4926530;29;20056;-90
2022/12/11 08:41:48;;;;;;;0.80;0.80;;;;;;;-0.59;99.10;98759.81;4938603;29;20546;-89
2022/12/11 08:44:16;;;;;;;0.80;0.80;;;;;;;-0.57;99.04;98771.06;4902440;29;20051;-90
2022/12/11 08:46:48;;;;;;;0.82;0.82;;;;;;;-0.66;98.50;98779.09;4903761;29;20131;-90
2022/12/11 08:49:16;;;;;;;0.80;0.80;;;;;;;-0.68;98.52;98774.97;4933400;29;20119;-90
2022/12/11 08:51:45;;;;;;;0.90;0.90;;;;;;;-0.69;98.66;98774.13;4929862;29;20502;-89
2022/12/11 08:54:16;;;;;;;0.80;0.80;;;;;;;-0.67;98.63;98777.44;4920071;29;20448;-92
2022/12/11 08:56:44;;;;;;;0.80;0.80;;;;;;;-0.61;98.61;98780.38;4919501;29;20048;-89
2022/12/11 08:59:11;;;;;;;0.90;0.90;;;;;;;-0.62;98.51;98768.13;4929133;29;20052;-91
2022/12/11 09:01:39;;;;;;;0.90;0.90;;;;;;;-0.60;98.17;98771.44;4899228;29;20058;-92
2022/12/11 09:04:06;;;;;;;0.80;0.80;;;;;;;-0.63;98.07;98777.06;4929741;29;20233;-92
2022/12/11 09:06:34;;;;;;;0.90;0.90;;;;;;;-0.60;98.15;98774.91;4924403;29;20055;-89
2022/12/11 09:09:02;;;;;;;0.82;0.82;;;;;;;-0.66;97.80;98770.28;4930187;29;20474;-90
2022/12/11 09:11:36;;;;;;;0.90;0.90;;;;;;;-0.67;97.76;98750.09;4915484;29;20515;-91
2022/12/11 09:14:05;;;;;;;0.88;0.88;;;;;;;-0.54;97.69;98754.81;4912700;29;20052;-90
2022/12/11 09:16:43;;;;;;;0.90;0.90;;;;;;;-0.69;97.04;98757.41;4902669;29;20062;-89
2022/12/11 09:19:13;;;;;;;0.90;0.90;;;;;;;-0.54;97.04;98790.09;4927106;29;20083;-93
2022/12/11 09:21:43;;;;;;;0.90;0.90;;;;;;;-0.66;97.00;98760.53;4903524;29;20138;-89
2022/12/11 09:24:11;;;;;;;0.70;0.70;;;;;;;-0.49;96.78;98785.06;4935029;29;20544;-89
2022/12/11 09:26:38;;;;;;;0.80;0.80;;;;;;;-0.53;96.68;98780.31;4925655;29;20138;-89
2022/12/11 09:29:13;;;;;;;0.82;0.82;;;;;;;-0.54;96.77;98789.25;4909597;29;20036;-93
2022/12/11 09:31:41;;;;;;;0.98;0.98;;;;;;;-0.56;96.71;98800.03;4918132;29;20056;-90
2022/12/11 09:34:15;;;;;;;0.70;0.70;;;;;;;-0.60;96.74;98804.06;4924473;29;20055;-92
2022/12/11 09:36:58;;;;;;;0.80;0.80;;;;;;;-0.68;96.27;98809.44;4930797;29;20588;-89
2022/12/11 09:39:25;;;;;;;0.80;0.80;;;;;;;-0.69;96.61;98815.72;4887950;29;20052;-92
2022/12/11 09:42:08;;;;;;;0.90;0.90;;;;;;;-0.60;96.85;98819.16;4900858;29;20143;-92
2022/12/11 09:44:44;;;;;;;0.80;0.80;;;;;;;-0.70;96.55;98795.53;4921469;29;20055;-93
2022/12/11 09:47:24;;;;;;;0.90;0.90;;;;;;;-0.70;96.72;98827.34;4906197;29;20056;-88
2022/12/11 09:50:14;;;;;;;0.80;0.80;;;;;;;-0.77;96.69;98829.84;4902748;29;20051;-87
2022/12/11 09:52:54;;;;;;;0.82;0.82;;;;;;;-0.80;96.70;98834.69;4920597;29;20067;-91
2022/12/11 09:55:26;;;;;;;0.80;0.80;;;;;;;-0.77;96.70;98829.03;4898835;29;20142;-90
2022/12/11 09:58:29;;;;;;;0.82;0.82;;;;;;;-0.76;96.91;98825.38;4925477;29;20060;-91
2022/12/11 10:01:13;;;;;;;1.00;1.00;;;;;;;-0.78;96.92;98814.16;4922165;29;20108;-90
2022/12/11 10:04:20;;;;;;;0.80;0.80;;;;;;;-0.79;96.75;98815.13;4901014;29;20094;-87
2022/12/11 10:06:53;;;;;;;0.60;0.60;;;;;;;-0.79;96.86;98810.66;4916464;29;20518;-88
2022/12/11 10:09:45;;;;;;;0.90;0.90;;;;;;;-0.77;97.03;98813.13;4919290;29;20040;-87
2022/12/11 10:12:34;;;;;;;0.90;0.90;;;;;;;-0.77;96.90;98807.84;4937189;29;20108;-91
2022/12/11 10:15:37;;;;;;;0.80;0.80;;;;;;;-0.76;96.57;98798.88;4919291;29;20079;-91
2022/12/11 10:18:10;;;;;;;0.80;0.80;;;;;;;-0.79;96.37;98799.22;4903701;29;20088;-90
2022/12/11 10:20:51;;;;;;;0.90;0.90;;;;;;;-0.80;96.38;98813.50;4889067;29;20056;-92
2022/12/11 10:23:45;;;;;;;0.90;0.90;;;;;;;-0.89;96.65;98810.91;4921798;29;20430;-93
2022/12/11 10:26:28;;;;;;;0.88;0.88;;;;;;;-0.88;97.19;98828.44;4906839;29;20058;-89
2022/12/11 10:28:59;;;;;;;0.75;0.75;;;;;;;-0.87;97.02;98835.38;4899441;29;20055;-88
2022/12/11 10:31:49;;;;;;;0.90;0.90;;;;;;;-0.77;97.28;98835.16;4914396;29;20051;-89
2022/12/11 10:34:29;;;;;;;0.80;0.80;;;;;;;-0.78;96.99;98827.41;4902173;29;20044;-90
2022/12/11 10:36:57;;;;;;;0.90;0.90;;;;;;;-0.83;97.12;98821.78;4923320;29;20052;-85
2022/12/11 10:39:26;;;;;;;0.80;0.80;;;;;;;-0.87;97.33;98822.13;4916395;29;20147;-87
2022/12/11 10:41:54;;;;;;;0.80;0.80;;;;;;;-0.85;97.50;98818.50;4923568;29;20820;-88
2022/12/11 10:44:26;;;;;;;0.90;0.90;;;;;;;-0.87;97.50;98819.47;4911721;29;20055;-86
2022/12/11 10:47:12;;;;;;;0.80;0.80;;;;;;;-0.86;97.41;98830.94;4936341;29;20055;-87
2022/12/11 10:49:55;;;;;;;0.90;0.90;;;;;;;-0.97;97.19;98804.81;4906212;29;20107;-87
2022/12/11 10:52:25;;;;;;;0.85;0.85;;;;;;;-1.00;97.27;98811.28;4937978;29;20104;-85
2022/12/11 10:55:20;;;;;;;0.90;0.90;;;;;;;-0.95;97.43;98789.56;4908955;29;20438;-88
2022/12/11 10:58:19;;;;;;;0.80;0.80;;;;;;;-0.92;97.43;98782.09;4915468;29;20060;-91
2022/12/11 11:01:09;;;;;;;0.80;0.80;;;;;;;-1.19;97.10;98761.41;4929915;29;20059;-89
2022/12/11 11:04:02;;;;;;;0.80;0.80;;;;;;;-1.11;97.11;98780.72;4901708;29;20127;-90
2022/12/11 11:06:29;;;;;;;0.80;0.80;;;;;;;-1.23;97.46;98760.13;4911018;29;20075;-89
2022/12/11 11:09:00;;;;;;;0.80;0.80;;;;;;;-1.16;97.33;98766.38;4887405;29;20127;-88
2022/12/11 11:11:36;;;;;;;0.90;0.90;;;;;;;-1.25;97.58;98759.47;4889487;29;20067;-89
2022/12/11 11:14:04;;;;;;;0.77;0.77;;;;;;;-1.16;97.79;98772.50;4901940;29;20111;-86
2022/12/11 11:16:35;;;;;;;0.88;0.88;;;;;;;-1.13;98.07;98771.31;4926868;29;20422;-89
2022/12/11 11:19:03;;;;;;;0.90;0.90;;;;;;;-1.16;98.00;98761.06;4902984;29;20106;-88
2022/12/11 11:21:31;;;;;;;0.85;0.85;;;;;;;-1.22;97.88;98767.06;4898239;29;20048;-86
2022/12/11 11:23:59;;;;;;;0.80;0.80;;;;;;;-1.17;97.99;98759.41;4887397;29;20078;-87
2022/12/11 11:26:31;;;;;;;0.98;0.98;;;;;;;-1.18;97.88;98763.06;4910201;29;20074;-88
2022/12/11 11:29:38;;;;;;;1.00;1.00;;;;;;;-1.35;97.77;98741.16;4891102;29;20044;-87
2022/12/11 11:32:19;;;;;;;0.90;0.90;;;;;;;-1.38;97.92;98760.84;4873683;29;20057;-88
2022/12/11 11:34:47;;;;;;;0.80;0.80;;;;;;;-1.40;98.24;98754.09;4859151;29;20056;-86
2022/12/11 11:37:32;;;;;;;0.95;0.95;;;;;;;-1.26;98.30;98771.06;4866409;29;20083;-87
2022/12/11 11:40:07;;;;;;;0.90;0.90;;;;;;;-1.34;98.31;98756.06;4862635;29;20270;-87
2022/12/11 11:42:50;;;;;;;0.90;0.90;;;;;;;-1.32;98.52;98775.22;4843864;29;20079;-87
2022/12/11 11:45:23;;;;;;;0.90;0.90;;;;;;;-1.49;98.52;98766.56;4868667;29;20056;-87
2022/12/11 11:48:10;;;;;;;0.90;0.90;;;;;;;-1.43;98.73;98781.72;4858362;29;20060;-86
2022/12/11 11:50:43;;;;;;;1.00;1.00;;;;;;;-1.43;98.65;98780.91;4859818;29;20049;-86
2022/12/11 11:53:27;;;;;;;0.80;0.80;;;;;;;-1.51;98.87;98778.31;4851922;29;20057;-86
2022/12/11 11:56:15;;;;;;;0.80;0.80;;;;;;;-1.46;98.85;98775.97;4878684;29;20084;-86
2022/12/11 11:59:04;;;;;;;0.90;0.90;;;;;;;-1.53;99.00;98778.47;4870506;29;20089;-86
2022/12/11 12:01:32;;;;;;;0.90;0.90;;;;;;;-1.48;99.10;98789.38;4892749;29;20076;-86
2022/12/11 12:04:03;;;;;;;0.80;0.80;;;;;;;-1.55;99.32;98778.63;4855604;29;20332;-87